Погода Биельинана 2 недели

Биельина, Босния и Герцеговина

13 - 26 июля
  • 13июля
    Сегодня
    +22°
    +38°
    Ясно и безоблачно
    ВремяПогодаТемператураВлажностьДавлениеВетер, м/сВероятность осадков
    02:00Ясно и безоблачно+25°C64 %748 мм1.5 м/с2 %
    05:00Ясно и безоблачно+23°C67 %749 мм1.4 м/с2 %
    08:00Ясно и безоблачно+26°C58 %750 мм1.4 м/с2 %
    11:00Ясно и безоблачно+33°C43 %750 мм0.9 м/с2 %
    14:00Ясно и безоблачно+36°C32 %749 мм1.3 м/с2 %
    17:00Ясно и безоблачно+37°C29 %748 мм2.5 м/с2 %
    20:00Практически безоблачно+34°C44 %748 мм1.2 м/с2 %
    23:00Ясно и безоблачно+27°C56 %749 мм0.9 м/с2 %
  • 14июля
    Воскресенье
    +22°
    +38°
    Практически безоблачно
    ВремяПогодаТемператураВлажностьДавлениеВетер, м/сВероятность осадков
    02:00Ясно и безоблачно+25°C62 %749 мм1.2 м/с2 %
    05:00Ясно и безоблачно+23°C69 %749 мм1.5 м/с2 %
    08:00Ясно и безоблачно+27°C54 %750 мм1.4 м/с2 %
    11:00Ясно и безоблачно+33°C38 %750 мм1.2 м/с2 %
    14:00Практически безоблачно+36°C27 %749 мм1.2 м/с4 %
    17:00Небольшая облачность+37°C25 %749 мм1.8 м/с10 %
    20:00Ясно и безоблачно+33°C49 %750 мм1.5 м/с2 %
    23:00Ясно и безоблачно+26°C61 %751 мм0.9 м/с2 %
  • 15июля
    Понедельник
    +23°
    +37°
    Ясно и безоблачно
    ВремяПогодаТемператураВлажностьДавлениеВетер, м/сВероятность осадков
    02:00Ясно и безоблачно+25°C67 %751 мм0.9 м/с2 %
    05:00Ясно и безоблачно+23°C72 %751 мм0.9 м/с2 %
    08:00Ясно и безоблачно+26°C64 %752 мм0.9 м/с2 %
    11:00Ясно и безоблачно+32°C46 %752 мм1.6 м/с2 %
    14:00Ясно и безоблачно+35°C33 %751 мм1.5 м/с2 %
    17:00Небольшая облачность+37°C32 %750 мм1.9 м/с2 %
    20:00Облачно с прояснениями+32°C45 %750 мм1.3 м/с2 %
    23:00Ясно и безоблачно+29°C51 %751 мм0.8 м/с2 %
  • 16июля
    Вторник
    +23°
    +38°
    Облачно с прояснениями
    ВремяПогодаТемператураВлажностьДавлениеВетер, м/сВероятность осадков
    02:00Ясно и безоблачно+26°C63 %750 мм0.6 м/с2 %
    05:00Ясно и безоблачно+24°C73 %750 мм1.0 м/с2 %
    08:00Ясно и безоблачно+27°C57 %751 мм0.9 м/с2 %
    11:00Ясно и безоблачно+34°C36 %751 мм0.8 м/с2 %
    14:00Облачно с прояснениями+38°C25 %750 мм1.1 м/с4 %
    17:00Небольшая облачность, возможен дождь с грозой+37°C28 %750 мм3.3 м/с9 %
    20:00Ясно и безоблачно+34°C47 %750 мм1.6 м/с2 %
    23:00Практически безоблачно+27°C45 %751 мм1.4 м/с2 %
  • 17июля
    Среда
    +22°
    +35°
    Практически безоблачно
    ВремяПогодаТемператураВлажностьДавлениеВетер, м/сВероятность осадков
    02:00Ясно и безоблачно+25°C56 %751 мм0.8 м/с2 %
    05:00Ясно и безоблачно+24°C63 %752 мм0.7 м/с2 %
    08:00Ясно и безоблачно+26°C64 %754 мм2.0 м/с2 %
    11:00Ясно и безоблачно+31°C50 %754 мм2.6 м/с2 %
    14:00Практически безоблачно+34°C33 %753 мм1.9 м/с14 %
    17:00Небольшая облачность, возможен дождь с грозой+35°C31 %753 мм2.2 м/с27 %
    20:00Облачно с прояснениями+33°C49 %754 мм1.5 м/с2 %
    23:00Ясно и безоблачно+26°C51 %754 мм1.2 м/с2 %
Мы используем cookies
Соглашаюсь